Flight Briefing for CPX32

Departure Arrival
Ted Stevens Anchorage International Airport (PANC)
Click to view FAA NOTAMS
Tokyo-Narita International Airport (RJAA)
Click to view FAA NOTAMS
Departure Time Arrival Time
N/A N/A
Aircraft Distance
B767-300BDSF 2981nm
Departure METAR Arrival METAR
PANC 260853Z 00000KT 10SM FEW250 01/M02 A3014 RMK AO2 SLP210 T00061017 400890006 58006 RJAA 260930Z 29003KT 260V320 9999 FEW020 10/07 Q1006 NOSIG RMK 1CU020 A2971
Suggested Route
NODLE R220 NANZA R220 NIKLL R220 NANAC Y810 ARMOR Y810 KETAR Y811 MELON


View recent IFR Routes data
Notes



Charts and Procedures

Charts for PANC
No chart available
Charts for RJAA
No chart available

Windy.com Weather Map